createdAt,value
2017-01-12T00:00:21.216Z,77.77
2017-01-12T00:01:03.920Z,77.96
2017-01-12T00:01:44.668Z,77.67
2017-01-12T00:02:25.224Z,77.58
2017-01-12T00:03:05.819Z,77.86
2017-01-12T00:03:46.421Z,77.96
2017-01-12T00:04:27.009Z,77.96
2017-01-12T00:05:07.626Z,77.96
2017-01-12T00:05:48.228Z,77.58
2017-01-12T00:06:28.832Z,77.77
2017-01-12T00:07:09.423Z,77.54
2017-01-12T00:07:50.723Z,77.54
2017-01-12T00:08:32.378Z,77.77
2017-01-12T00:09:15.014Z,77.73
2017-01-12T00:09:55.581Z,77.73
2017-01-12T00:10:38.250Z,77.73
2017-01-12T00:11:18.861Z,77.92
2017-01-12T00:11:59.454Z,77.83
2017-01-12T00:12:40.352Z,77.92
2017-01-12T00:13:21.029Z,77.25
2017-01-12T00:14:01.595Z,77.67
2017-01-12T00:14:42.269Z,77.58
2017-01-12T00:15:22.898Z,77.48
2017-01-12T00:16:03.618Z,77.58
2017-01-12T00:16:44.208Z,77.2
2017-01-12T00:17:24.849Z,77.39
2017-01-12T00:18:05.497Z,77.2
2017-01-12T00:18:46.167Z,77.39
2017-01-12T00:19:27.716Z,77.45
2017-01-12T00:20:08.295Z,77.16
2017-01-12T00:20:48.953Z,77.54
2017-01-12T00:21:30.648Z,77.35
2017-01-12T00:22:11.276Z,77.39
2017-01-12T00:22:52.209Z,77.35
2017-01-12T00:23:33.803Z,77.96
2017-01-12T00:24:15.541Z,77.67
2017-01-12T00:24:57.205Z,77.73
2017-01-12T00:25:42.914Z,77.73
2017-01-12T00:26:23.463Z,77.45
2017-01-12T00:27:05.085Z,77.83
2017-01-12T00:27:45.755Z,77.73
2017-01-12T00:28:27.478Z,77.45
2017-01-12T00:29:08.070Z,77.64
2017-01-12T00:29:48.696Z,77.73
2017-01-12T00:30:29.271Z,78.11
2017-01-12T00:31:11.623Z,77.92
2017-01-12T00:31:52.205Z,78.39
2017-01-12T00:32:32.853Z,78.2
2017-01-12T00:33:14.491Z,78.11
2017-01-12T00:33:55.830Z,78.39
2017-01-12T00:34:36.447Z,78.11
2017-01-12T00:35:17.107Z,78.39
2017-01-12T00:35:57.734Z,77.92
2017-01-12T00:36:38.415Z,78.02
2017-01-12T00:37:19.167Z,78.2
2017-01-12T00:37:59.801Z,78.11
2017-01-12T00:38:40.472Z,78.39
2017-01-12T00:39:21.936Z,78.58
2017-01-12T00:40:02.522Z,78.39
2017-01-12T00:40:43.133Z,78.77
2017-01-12T00:41:23.772Z,78.3
2017-01-12T00:42:04.629Z,78.87
2017-01-12T00:42:45.226Z,78.87
2017-01-12T00:43:25.883Z,78.49
2017-01-12T00:44:06.492Z,79.06
2017-01-12T00:44:47.069Z,78.96
2017-01-12T00:45:28.770Z,79.06
2017-01-12T00:46:09.424Z,78.96
2017-01-12T00:46:50.017Z,79.15
2017-01-12T00:47:30.600Z,79.15
2017-01-12T00:48:11.245Z,79.25
2017-01-12T00:48:56.538Z,79.53
2017-01-12T00:49:37.238Z,79.53
2017-01-12T00:50:17.890Z,79.25
2017-01-12T00:50:58.542Z,79.34
2017-01-12T00:51:40.215Z,79.34
2017-01-12T00:52:20.975Z,79.06
2017-01-12T00:53:01.658Z,79.63
2017-01-12T00:53:42.281Z,79.44
2017-01-12T00:54:22.923Z,79.53
2017-01-12T00:55:04.614Z,79.82
2017-01-12T00:55:45.260Z,79.82
2017-01-12T00:56:25.907Z,79.91
2017-01-12T00:57:06.559Z,80.19
2017-01-12T00:57:48.239Z,80.29
2017-01-12T00:58:29.937Z,80.38
2017-01-12T00:59:10.586Z,80
2017-01-12T00:59:51.159Z,80.19
2017-01-12T01:00:32.836Z,79.91
2017-01-12T01:01:13.455Z,80
2017-01-12T01:01:54.035Z,79.53
2017-01-12T01:02:35.713Z,79.44
2017-01-12T01:03:17.360Z,79.44
2017-01-12T01:03:57.923Z,79.06
2017-01-12T01:04:39.595Z,79.63
2017-01-12T01:05:20.250Z,79.06
2017-01-12T01:06:00.933Z,79.53
2017-01-12T01:06:41.571Z,79.25
2017-01-12T01:07:22.257Z,79.53
2017-01-12T01:08:02.866Z,79.34
2017-01-12T01:08:43.512Z,79.72
2017-01-12T01:09:24.176Z,79.53
2017-01-12T01:10:04.857Z,79.63
2017-01-12T01:10:47.520Z,79.53
2017-01-12T01:11:28.109Z,79.53
2017-01-12T01:12:08.742Z,79.63
2017-01-12T01:12:49.417Z,79.53
2017-01-12T01:13:30.048Z,79.72
2017-01-12T01:14:11.222Z,79.53
2017-01-12T01:14:51.868Z,79.53
2017-01-12T01:15:33.193Z,79.44
2017-01-12T01:16:13.806Z,79.34
2017-01-12T01:16:55.442Z,79.44
2017-01-12T01:17:36.161Z,79.34
2017-01-12T01:18:16.820Z,79.44
2017-01-12T01:18:57.471Z,79.34
2017-01-12T01:19:38.119Z,79.63
2017-01-12T01:20:19.837Z,79.53
2017-01-12T01:21:00.484Z,79.06
2017-01-12T01:21:41.058Z,79.25
2017-01-12T01:22:21.717Z,79.15
2017-01-12T01:23:02.403Z,79.25
2017-01-12T01:23:43.055Z,78.96
2017-01-12T01:24:23.609Z,78.96
2017-01-12T01:25:04.269Z,79.15
2017-01-12T01:25:44.850Z,78.87
2017-01-12T01:26:25.449Z,78.67
2017-01-12T01:27:06.033Z,78.77
2017-01-12T01:27:46.791Z,78.87
2017-01-12T01:28:27.543Z,78.87
2017-01-12T01:29:08.145Z,78.87
2017-01-12T01:29:48.807Z,78.87
2017-01-12T01:30:29.462Z,79.15
2017-01-12T01:31:10.107Z,79.06
2017-01-12T01:31:52.519Z,78.96
2017-01-12T01:32:33.171Z,78.3
2017-01-12T01:33:13.823Z,78.3
2017-01-12T01:33:54.482Z,78.87
2017-01-12T01:34:35.110Z,78.96
2017-01-12T01:35:15.772Z,78.87
2017-01-12T01:35:56.424Z,78.77
2017-01-12T01:36:37.075Z,78.87
2017-01-12T01:37:18.757Z,78.77
2017-01-12T01:37:59.415Z,78.77
2017-01-12T01:38:40.065Z,78.87
2017-01-12T01:39:20.727Z,78.87
2017-01-12T01:40:01.282Z,78.77
2017-01-12T01:40:41.924Z,78.77
2017-01-12T01:41:22.582Z,78.58
2017-01-12T01:42:03.241Z,78.87
2017-01-12T01:42:43.912Z,78.87
2017-01-12T01:43:24.589Z,78.96
2017-01-12T01:44:05.200Z,78.77
2017-01-12T01:44:46.762Z,78.77
2017-01-12T01:45:27.364Z,78.77
2017-01-12T01:46:07.959Z,78.67
2017-01-12T01:46:48.537Z,78.49
2017-01-12T01:47:29.168Z,78.77
2017-01-12T01:48:09.878Z,78.77
2017-01-12T01:48:50.474Z,78.77
2017-01-12T01:49:31.043Z,79.06
2017-01-12T01:50:11.700Z,78.87
2017-01-12T01:50:52.337Z,78.3
2017-01-12T01:51:34.147Z,78.2
2017-01-12T01:52:14.669Z,78.49
2017-01-12T01:52:55.327Z,78.2
2017-01-12T01:53:35.977Z,78.58
2017-01-12T01:54:16.634Z,78.2
2017-01-12T01:54:57.272Z,78.58
2017-01-12T01:55:37.960Z,78.58
2017-01-12T01:56:18.588Z,78.11
2017-01-12T01:56:59.249Z,78.02
2017-01-12T01:57:39.897Z,78.11
2017-01-12T01:58:20.565Z,78.39
2017-01-12T01:59:01.213Z,78.49
2017-01-12T01:59:41.876Z,78.58
2017-01-12T02:00:22.546Z,78.58
2017-01-12T02:01:03.144Z,78.58
2017-01-12T02:01:43.733Z,78.2
2017-01-12T02:02:24.364Z,78.3
2017-01-12T02:03:05.047Z,78.2
2017-01-12T02:03:45.667Z,78.02
2017-01-12T02:04:26.249Z,77.92
2017-01-12T02:05:06.925Z,77.92
2017-01-12T02:05:47.528Z,78.02
2017-01-12T02:06:28.182Z,78.02
2017-01-12T02:07:08.819Z,78.02
2017-01-12T02:07:49.535Z,77.92
2017-01-12T02:08:30.213Z,77.92
2017-01-12T02:09:10.852Z,77.92
2017-01-12T02:09:51.444Z,78.11
2017-01-12T02:10:32.074Z,78.02
2017-01-12T02:11:12.788Z,78.3
2017-01-12T02:11:53.350Z,78.11
2017-01-12T02:12:33.975Z,78.39
2017-01-12T02:13:14.651Z,78.58
2017-01-12T02:13:55.449Z,78.49
2017-01-12T02:14:36.055Z,78.39
2017-01-12T02:15:16.660Z,78.77
2017-01-12T02:15:57.297Z,78.39
2017-01-12T02:16:37.869Z,78.39
2017-01-12T02:17:18.546Z,78.11
2017-01-12T02:17:59.157Z,78.2
2017-01-12T02:18:39.737Z,78.2
2017-01-12T02:19:20.381Z,78.02
2017-01-12T02:20:01.045Z,78.39
2017-01-12T02:20:41.610Z,78.77
2017-01-12T02:21:22.242Z,78.58
2017-01-12T02:22:02.849Z,79.06
2017-01-12T02:22:43.425Z,78.96
2017-01-12T02:23:23.994Z,78.64
2017-01-12T02:24:04.652Z,78.87
2017-01-12T02:24:45.259Z,78.77
2017-01-12T02:25:26.872Z,78.49
2017-01-12T02:26:07.432Z,78.73
2017-01-12T02:26:48.065Z,79.11
2017-01-12T02:27:28.675Z,79.02
2017-01-12T02:28:09.388Z,79.3
2017-01-12T02:28:49.962Z,79.3
2017-01-12T02:29:30.575Z,79.21
2017-01-12T02:30:11.723Z,79.02
2017-01-12T02:30:52.404Z,79.02
2017-01-12T02:31:33.015Z,79.21
2017-01-12T02:32:13.757Z,79.02
2017-01-12T02:32:54.358Z,78.92
2017-01-12T02:33:34.909Z,78.92
2017-01-12T02:34:15.583Z,79.02
2017-01-12T02:34:56.265Z,79.49
2017-01-12T02:35:36.912Z,79.58
2017-01-12T02:36:17.591Z,79.49
2017-01-12T02:36:58.242Z,79.39
2017-01-12T02:37:38.930Z,79.58
2017-01-12T02:38:19.549Z,79.58
2017-01-12T02:39:00.194Z,79.3
2017-01-12T02:39:40.857Z,79.3
2017-01-12T02:40:21.460Z,79.39
2017-01-12T02:41:02.140Z,79.3
2017-01-12T02:41:42.764Z,79.3
2017-01-12T02:42:23.417Z,79.49
2017-01-12T02:43:08.679Z,79.96
2017-01-12T02:43:49.338Z,80.34
2017-01-12T02:44:31.016Z,80.25
2017-01-12T02:45:11.663Z,79.96
2017-01-12T02:45:53.347Z,79.96
2017-01-12T02:46:35.960Z,79.87
2017-01-12T02:47:16.594Z,79.96
2017-01-12T02:47:57.244Z,79.96
2017-01-12T02:48:37.897Z,80.06
2017-01-12T02:49:18.528Z,80.53
2017-01-12T02:49:59.203Z,80.15
2017-01-12T02:50:39.864Z,79.96
2017-01-12T02:51:20.516Z,80.15
2017-01-12T02:52:01.177Z,80.15
2017-01-12T02:52:41.823Z,80.91
2017-01-12T02:53:22.495Z,80.63
2017-01-12T02:54:03.130Z,80.72
2017-01-12T02:54:43.788Z,80.53
2017-01-12T02:55:24.377Z,80.44
2017-01-12T02:56:04.964Z,80.91
2017-01-12T02:56:45.526Z,81.2
2017-01-12T02:57:26.191Z,81.1
2017-01-12T02:58:06.770Z,80.91
2017-01-12T02:58:47.369Z,80.63
2017-01-12T02:59:27.933Z,80.91
2017-01-12T03:00:08.598Z,81.01
2017-01-12T03:00:49.195Z,81.29
2017-01-12T03:01:29.880Z,81.2
2017-01-12T03:02:10.483Z,80.91
2017-01-12T03:02:51.092Z,81.38
2017-01-12T03:03:32.722Z,81.38
2017-01-12T03:04:13.311Z,81.2
2017-01-12T03:04:53.867Z,81.48
2017-01-12T03:05:34.578Z,81.29
2017-01-12T03:06:15.230Z,81.38
2017-01-12T03:06:55.828Z,81.76
2017-01-12T03:07:36.383Z,81.67
2017-01-12T03:08:17.214Z,81.76
2017-01-12T03:08:58.868Z,81.38
2017-01-12T03:09:39.557Z,81.57
2017-01-12T03:10:20.108Z,82.05
2017-01-12T03:11:00.770Z,81.95
2017-01-12T03:11:41.363Z,81.67
2017-01-12T03:12:21.972Z,81.95
2017-01-12T03:13:02.537Z,82.14
2017-01-12T03:13:43.194Z,82.24
2017-01-12T03:14:23.894Z,81.95
2017-01-12T03:15:04.473Z,82.24
2017-01-12T03:15:45.140Z,82.14
2017-01-12T03:16:25.779Z,82.05
2017-01-12T03:17:06.341Z,82.52
2017-01-12T03:17:46.993Z,82.81
2017-01-12T03:18:27.826Z,82.52
2017-01-12T03:19:08.390Z,82.52
2017-01-12T03:19:49.068Z,82.33
2017-01-12T03:20:29.932Z,82.39
2017-01-12T03:21:10.308Z,82.2
2017-01-12T03:21:52.040Z,82.01
2017-01-12T03:22:32.676Z,82.57
2017-01-12T03:23:13.290Z,82.48
2017-01-12T03:23:54.937Z,82.29
2017-01-12T03:24:35.557Z,82.67
2017-01-12T03:25:16.120Z,82.57
2017-01-12T03:25:56.778Z,83.14
2017-01-12T03:26:37.427Z,82.95
2017-01-12T03:27:18.142Z,83.05
2017-01-12T03:27:58.898Z,83.14
2017-01-12T03:28:39.509Z,83.24
2017-01-12T03:29:20.141Z,83.33
2017-01-12T03:30:00.803Z,83.43
2017-01-12T03:30:41.459Z,83.43
2017-01-12T03:31:22.109Z,83.33
2017-01-12T03:32:02.802Z,83.43
2017-01-12T03:32:43.430Z,83.37
2017-01-12T03:33:24.071Z,83.28
2017-01-12T03:34:04.711Z,83.28
2017-01-12T03:34:45.365Z,83.18
2017-01-12T03:35:26.024Z,83.09
2017-01-12T03:36:06.681Z,83.09
2017-01-12T03:36:47.363Z,83.09
2017-01-12T03:37:27.988Z,83
2017-01-12T03:38:08.646Z,83.18
2017-01-12T03:38:49.300Z,83
2017-01-12T03:39:29.952Z,83
2017-01-12T03:40:10.602Z,83
2017-01-12T03:40:51.250Z,83
2017-01-12T03:41:31.908Z,83
2017-01-12T03:42:12.562Z,83
2017-01-12T03:42:53.217Z,83.18
2017-01-12T03:43:33.857Z,83.18
2017-01-12T03:44:14.512Z,83
2017-01-12T03:44:55.192Z,83
2017-01-12T03:45:36.932Z,83.28
2017-01-12T03:46:17.508Z,83.09
2017-01-12T03:46:58.155Z,83.09
2017-01-12T03:47:38.788Z,82.9
2017-01-12T03:48:19.358Z,82.71
2017-01-12T03:49:00.012Z,82.71
2017-01-12T03:49:40.645Z,82.81
2017-01-12T03:50:21.290Z,82.9
2017-01-12T03:51:01.948Z,83
2017-01-12T03:51:42.603Z,82.9
2017-01-12T03:52:24.280Z,83
2017-01-12T03:53:04.940Z,82.81
2017-01-12T03:53:45.585Z,83
2017-01-12T03:54:26.243Z,82.81
2017-01-12T03:55:06.921Z,82.52
2017-01-12T03:55:47.493Z,83
2017-01-12T03:56:28.120Z,82.71
2017-01-12T03:57:08.774Z,82.9
2017-01-12T03:57:49.418Z,83
2017-01-12T03:58:30.064Z,83.09
2017-01-12T03:59:10.723Z,83.09
2017-01-12T03:59:51.377Z,83.18
2017-01-12T04:00:32.031Z,83
2017-01-12T04:01:12.684Z,83
2017-01-12T04:01:53.351Z,83.18
2017-01-12T04:02:35.022Z,83.18
2017-01-12T04:03:15.670Z,83
2017-01-12T04:03:56.326Z,83
2017-01-12T04:04:37.097Z,83
2017-01-12T04:05:17.723Z,83.28
2017-01-12T04:05:58.389Z,83.09
2017-01-12T04:06:39.019Z,83.09
2017-01-12T04:07:19.737Z,83
2017-01-12T04:08:01.624Z,83.09
2017-01-12T04:08:42.234Z,83.37
2017-01-12T04:09:22.872Z,83
2017-01-12T04:10:03.530Z,83.18
2017-01-12T04:10:44.185Z,83.18
2017-01-12T04:11:24.839Z,83.37
2017-01-12T04:12:05.480Z,83
2017-01-12T04:12:46.149Z,83.09
2017-01-12T04:13:26.797Z,83.18
2017-01-12T04:14:07.450Z,83
2017-01-12T04:14:49.131Z,83
2017-01-12T04:15:29.815Z,83
2017-01-12T04:16:10.400Z,83.18
2017-01-12T04:16:50.984Z,83.28
2017-01-12T04:17:31.638Z,83.28
2017-01-12T04:18:13.293Z,83.18
2017-01-12T04:18:53.942Z,83.18
2017-01-12T04:19:34.506Z,83.18
2017-01-12T04:20:15.143Z,83.18
2017-01-12T04:20:55.760Z,83
2017-01-12T04:21:36.346Z,83
2017-01-12T04:22:16.901Z,83
2017-01-12T04:22:57.566Z,83
2017-01-12T04:23:38.156Z,83
2017-01-12T04:24:18.746Z,83
2017-01-12T04:24:59.356Z,83
2017-01-12T04:25:39.996Z,83
2017-01-12T04:26:20.617Z,82.81
2017-01-12T04:27:01.176Z,83.09
2017-01-12T04:27:41.841Z,83.28
2017-01-12T04:28:22.478Z,83.09
2017-01-12T04:29:03.059Z,83
2017-01-12T04:29:43.703Z,83.09
2017-01-12T04:30:24.320Z,82.75
2017-01-12T04:31:04.894Z,83
2017-01-12T04:31:45.550Z,82.9
2017-01-12T04:32:26.191Z,82.81
2017-01-12T04:33:07.115Z,82.81
2017-01-12T04:33:47.753Z,82.9
2017-01-12T04:34:28.417Z,82.85
2017-01-12T04:35:09.055Z,82.43
2017-01-12T04:35:49.732Z,82.75
2017-01-12T04:36:30.321Z,82.66
2017-01-12T04:37:10.993Z,82.66
2017-01-12T04:37:51.628Z,82.62
2017-01-12T04:38:32.286Z,82.66
2017-01-12T04:39:12.949Z,82.52
2017-01-12T04:39:53.593Z,82.85
2017-01-12T04:40:34.261Z,82.52
2017-01-12T04:41:14.901Z,82.75
2017-01-12T04:41:55.558Z,82.75
2017-01-12T04:42:36.200Z,82.66
2017-01-12T04:43:17.956Z,82.56
2017-01-12T04:43:58.656Z,82.94
2017-01-12T04:44:39.284Z,82.66
2017-01-12T04:45:19.946Z,82.66
2017-01-12T04:46:00.586Z,82.62
2017-01-12T04:46:41.150Z,82.37
2017-01-12T04:47:21.801Z,82.9
2017-01-12T04:48:02.435Z,82.75
2017-01-12T04:48:42.996Z,83.18
2017-01-12T04:49:23.670Z,83.09
2017-01-12T04:50:04.288Z,83.18
2017-01-12T04:50:44.954Z,83
2017-01-12T04:51:25.597Z,83
2017-01-12T04:52:06.241Z,83.09
2017-01-12T04:52:46.907Z,83
2017-01-12T04:53:27.554Z,83.28
2017-01-12T04:54:08.212Z,83.13
2017-01-12T04:54:48.869Z,83.23
2017-01-12T04:55:29.447Z,83.04
2017-01-12T04:56:10.083Z,83.18
2017-01-12T04:56:50.731Z,83.13
2017-01-12T04:57:31.402Z,83.09
2017-01-12T04:58:12.031Z,83.18
2017-01-12T04:58:52.702Z,83.13
2017-01-12T04:59:33.353Z,83.18
2017-01-12T05:00:14.006Z,83.04
2017-01-12T05:00:54.578Z,83.13
2017-01-12T05:01:35.190Z,83.04
2017-01-12T05:02:15.772Z,83.23
2017-01-12T05:02:56.398Z,83.23
2017-01-12T05:03:36.994Z,83.23
2017-01-12T05:04:17.590Z,83.13
2017-01-12T05:04:58.159Z,83.23
2017-01-12T05:05:38.836Z,83.23
2017-01-12T05:06:19.460Z,83.23
2017-01-12T05:07:00.133Z,83.13
2017-01-12T05:07:40.799Z,83.23
2017-01-12T05:08:21.415Z,83.13
2017-01-12T05:09:02.078Z,83.13
2017-01-12T05:09:42.730Z,83.32
2017-01-12T05:10:23.384Z,83.23
2017-01-12T05:11:05.074Z,83.23
2017-01-12T05:11:45.773Z,83.23
2017-01-12T05:12:26.372Z,83.13
2017-01-12T05:13:07.025Z,82.85
2017-01-12T05:13:47.667Z,82.94
2017-01-12T05:14:28.318Z,82.94
2017-01-12T05:15:08.987Z,82.94
2017-01-12T05:15:49.626Z,82.94
2017-01-12T05:16:30.297Z,82.85
2017-01-12T05:17:10.940Z,82.47
2017-01-12T05:17:51.586Z,82.94
2017-01-12T05:18:34.214Z,82.94
2017-01-12T05:19:14.838Z,82.85
2017-01-12T05:19:56.523Z,82.47
2017-01-12T05:20:37.168Z,82.47
2017-01-12T05:21:18.839Z,82.75
2017-01-12T05:21:59.493Z,82.85
2017-01-12T05:22:40.152Z,83.13
2017-01-12T05:23:20.848Z,82.85
2017-01-12T05:24:01.473Z,82.85
2017-01-12T05:24:43.131Z,82.85
2017-01-12T05:25:23.793Z,82.94
2017-01-12T05:26:04.382Z,82.94
2017-01-12T05:26:44.976Z,82.85
2017-01-12T05:27:25.598Z,82.94
2017-01-12T05:28:06.203Z,82.94
2017-01-12T05:28:46.889Z,82.75
2017-01-12T05:29:27.483Z,83.04
2017-01-12T05:30:08.076Z,82.85
2017-01-12T05:30:48.711Z,82.85
2017-01-12T05:31:29.343Z,82.85
2017-01-12T05:32:10.026Z,83.13
2017-01-12T05:32:50.660Z,82.75
2017-01-12T05:33:31.308Z,82.94
2017-01-12T05:34:11.989Z,83.04
2017-01-12T05:34:52.613Z,83.04
2017-01-12T05:35:33.282Z,82.94
2017-01-12T05:36:13.917Z,82.94
2017-01-12T05:36:54.572Z,82.94
2017-01-12T05:37:35.230Z,82.66
2017-01-12T05:38:15.878Z,82.94
2017-01-12T05:38:56.545Z,82.85
2017-01-12T05:39:37.198Z,82.94
2017-01-12T05:40:17.842Z,82.75
2017-01-12T05:40:58.436Z,82.94
2017-01-12T05:41:40.156Z,83.13
2017-01-12T05:42:20.706Z,83.13
2017-01-12T05:43:01.376Z,82.85
2017-01-12T05:43:41.983Z,83.32
2017-01-12T05:44:22.565Z,83.23
2017-01-12T05:45:03.125Z,83.32
2017-01-12T05:45:43.782Z,83.13
2017-01-12T05:46:24.411Z,83.18
2017-01-12T05:47:04.988Z,83.51
2017-01-12T05:47:45.645Z,83.51
2017-01-12T05:48:26.274Z,83.51
2017-01-12T05:49:06.847Z,83.28
2017-01-12T05:49:47.502Z,83.09
2017-01-12T05:50:28.127Z,83.18
2017-01-12T05:51:08.722Z,83.28
2017-01-12T05:51:49.355Z,83.75
2017-01-12T05:52:30.009Z,83.47
2017-01-12T05:53:10.691Z,83.56
2017-01-12T05:53:51.316Z,83.18
2017-01-12T05:54:31.971Z,83.66
2017-01-12T05:55:12.662Z,83.47
2017-01-12T05:55:53.273Z,83.85
2017-01-12T05:56:33.926Z,83.66
2017-01-12T05:57:15.602Z,83.47
2017-01-12T05:57:57.280Z,83.75
2017-01-12T05:58:38.956Z,84.04
2017-01-12T05:59:19.610Z,84.42
2017-01-12T06:00:00.284Z,84.32
2017-01-12T06:00:40.928Z,84.23
2017-01-12T06:01:21.598Z,83.75
2017-01-12T06:02:02.241Z,84.23
2017-01-12T06:02:42.877Z,84.04
2017-01-12T06:03:23.538Z,84.04
2017-01-12T06:04:04.192Z,84.04
2017-01-12T06:04:44.865Z,84.04
2017-01-12T06:05:25.580Z,84.23
2017-01-12T06:06:06.241Z,84.04
2017-01-12T06:06:47.055Z,84.13
2017-01-12T06:07:27.648Z,84.13
2017-01-12T06:08:08.315Z,83.94
2017-01-12T06:08:48.980Z,84.32
2017-01-12T06:09:29.616Z,84.42
2017-01-12T06:10:11.283Z,84.42
2017-01-12T06:10:51.922Z,84.42
2017-01-12T06:11:32.595Z,84.42
2017-01-12T06:12:13.254Z,84.42
2017-01-12T06:12:53.907Z,84.23
2017-01-12T06:13:34.548Z,84.42
2017-01-12T06:14:15.343Z,84.23
2017-01-12T06:14:55.950Z,84.23
2017-01-12T06:15:36.558Z,84.13
2017-01-12T06:16:17.141Z,84.13
2017-01-12T06:16:57.711Z,84.13
2017-01-12T06:17:38.359Z,84.32
2017-01-12T06:18:18.965Z,84.23
2017-01-12T06:18:59.566Z,84.23
2017-01-12T06:19:40.137Z,84.42
2017-01-12T06:20:20.773Z,84.51
2017-01-12T06:21:01.443Z,84.42
2017-01-12T06:21:42.224Z,84.61
2017-01-12T06:22:23.880Z,84.8
2017-01-12T06:23:04.507Z,84.7
2017-01-12T06:23:46.203Z,84.7
2017-01-12T06:24:26.841Z,84.51
2017-01-12T06:25:07.526Z,84.23
2017-01-12T06:25:48.186Z,84.51
2017-01-12T06:26:28.780Z,84.51
2017-01-12T06:27:09.394Z,84.7
2017-01-12T06:27:50.003Z,84.61
2017-01-12T06:28:30.599Z,84.61
2017-01-12T06:29:11.194Z,84.89
2017-01-12T06:29:51.763Z,84.89
2017-01-12T06:30:32.415Z,84.99
2017-01-12T06:31:13.106Z,85.17
2017-01-12T06:31:54.732Z,85.08
2017-01-12T06:32:35.309Z,85.27
2017-01-12T06:33:15.946Z,85.08
2017-01-12T06:33:56.503Z,85.08
2017-01-12T06:34:37.159Z,84.89
2017-01-12T06:35:17.855Z,84.99
2017-01-12T06:35:58.516Z,84.8
2017-01-12T06:36:39.153Z,84.89
2017-01-12T06:37:19.790Z,84.89
2017-01-12T06:38:00.442Z,84.8
2017-01-12T06:38:41.112Z,84.99
2017-01-12T06:39:21.761Z,84.99
2017-01-12T06:40:02.404Z,84.89
2017-01-12T06:40:43.018Z,85.08
2017-01-12T06:41:23.591Z,85.08
2017-01-12T06:42:04.274Z,85.08
2017-01-12T06:42:44.822Z,85.08
2017-01-12T06:43:25.516Z,85.17
2017-01-12T06:44:06.763Z,84.89
2017-01-12T06:44:47.352Z,85.17
2017-01-12T06:45:27.926Z,85.27
2017-01-12T06:46:08.647Z,85.08
2017-01-12T06:46:49.219Z,85.17
2017-01-12T06:47:29.850Z,85.08
2017-01-12T06:48:10.538Z,85.08
2017-01-12T06:48:52.177Z,84.89
2017-01-12T06:49:32.741Z,85.08
2017-01-12T06:50:13.402Z,84.89
2017-01-12T06:50:54.085Z,84.89
2017-01-12T06:51:34.781Z,84.89
2017-01-12T06:52:15.327Z,84.89
2017-01-12T06:52:56.973Z,84.89
2017-01-12T06:53:37.605Z,84.89
2017-01-12T06:54:18.310Z,85.08
2017-01-12T06:54:58.967Z,84.89
2017-01-12T06:55:39.646Z,84.89
2017-01-12T06:56:20.280Z,85.08
2017-01-12T06:57:00.847Z,84.89
2017-01-12T06:57:41.500Z,85.08
2017-01-12T06:58:22.126Z,85.08
2017-01-12T06:59:02.713Z,84.99
2017-01-12T06:59:43.359Z,84.99
2017-01-12T07:00:24.085Z,85.08
2017-01-12T07:01:04.648Z,85.08
2017-01-12T07:01:45.334Z,84.89
2017-01-12T07:02:26.028Z,84.89
2017-01-12T07:03:06.719Z,84.99
2017-01-12T07:03:47.372Z,85.17
2017-01-12T07:04:28.023Z,84.99
2017-01-12T07:05:08.668Z,84.89
2017-01-12T07:05:49.349Z,84.89
2017-01-12T07:06:29.977Z,84.89
2017-01-12T07:07:11.677Z,84.89
2017-01-12T07:07:52.302Z,84.99
2017-01-12T07:08:32.958Z,84.89
2017-01-12T07:09:14.681Z,84.89
2017-01-12T07:09:55.416Z,84.8
2017-01-12T07:10:36.038Z,84.89
2017-01-12T07:11:16.696Z,84.89
2017-01-12T07:11:57.340Z,84.61
2017-01-12T07:12:38.042Z,85.08
2017-01-12T07:13:18.747Z,85.27
2017-01-12T07:14:00.542Z,84.89
2017-01-12T07:14:41.196Z,85.08
2017-01-12T07:15:21.847Z,85.27
2017-01-12T07:16:02.546Z,85.65
2017-01-12T07:16:43.232Z,85.84
2017-01-12T07:17:23.807Z,85.27
2017-01-12T07:18:04.464Z,85.36
2017-01-12T07:18:45.150Z,85.36
2017-01-12T07:19:25.853Z,85.65
2017-01-12T07:20:06.406Z,85.46
2017-01-12T07:20:47.016Z,85.46
2017-01-12T07:21:27.700Z,85.36
2017-01-12T07:22:08.244Z,85.27
2017-01-12T07:22:48.943Z,85.65
2017-01-12T07:23:29.675Z,86.22
2017-01-12T07:24:10.259Z,86.31
2017-01-12T07:24:50.980Z,86.12
2017-01-12T07:25:31.728Z,85.84
2017-01-12T07:26:12.296Z,86.03
2017-01-12T07:26:52.935Z,86.03
2017-01-12T07:27:33.634Z,86.03
2017-01-12T07:28:14.339Z,85.93
2017-01-12T07:28:54.892Z,86.03
2017-01-12T07:29:35.569Z,86.03
2017-01-12T07:30:16.247Z,86.22
2017-01-12T07:30:56.951Z,86.5
2017-01-12T07:31:37.521Z,86.6
2017-01-12T07:32:18.095Z,86.6
2017-01-12T07:32:58.895Z,86.41
2017-01-12T07:33:39.619Z,86.5
2017-01-12T07:34:22.363Z,86.69
2017-01-12T07:35:02.927Z,86.22
2017-01-12T07:35:43.590Z,86.41
2017-01-12T07:36:24.226Z,86.69
2017-01-12T07:37:04.902Z,86.41
2017-01-12T07:37:47.597Z,86.5
2017-01-12T07:38:28.246Z,86.5
2017-01-12T07:39:08.905Z,87.26
2017-01-12T07:39:49.555Z,87.07
2017-01-12T07:40:30.193Z,87.16
2017-01-12T07:41:11.966Z,87.07
2017-01-12T07:41:52.513Z,87.16
2017-01-12T07:42:33.191Z,86.79
2017-01-12T07:43:14.850Z,87.07
2017-01-12T07:43:55.415Z,86.98
2017-01-12T07:44:36.638Z,86.79
2017-01-12T07:45:17.859Z,86.79
2017-01-12T07:45:58.438Z,87.07
2017-01-12T07:46:40.080Z,86.88
2017-01-12T07:47:20.730Z,87.07
2017-01-12T07:48:01.381Z,86.98
2017-01-12T07:48:42.017Z,86.98
2017-01-12T07:49:22.695Z,87.26
2017-01-12T07:50:03.337Z,87.26
2017-01-12T07:50:44.071Z,87.07
2017-01-12T07:51:24.636Z,87.07
2017-01-12T07:52:06.167Z,87.07
2017-01-12T07:52:46.859Z,87.26
2017-01-12T07:53:27.411Z,87.07
2017-01-12T07:54:08.063Z,87.07
2017-01-12T07:54:48.726Z,86.98
2017-01-12T07:55:29.301Z,87.26
2017-01-12T07:56:10.964Z,86.98
2017-01-12T07:56:51.631Z,86.69
2017-01-12T07:57:32.438Z,86.22
2017-01-12T07:58:13.143Z,86.6
2017-01-12T07:58:54.801Z,86.98
2017-01-12T07:59:36.548Z,86.5
2017-01-12T08:00:18.253Z,87.26
2017-01-12T08:00:58.956Z,86.88
2017-01-12T08:01:40.679Z,87.26
2017-01-12T08:02:21.254Z,87.26
2017-01-12T08:03:01.988Z,87.07
2017-01-12T08:03:42.698Z,86.98
2017-01-12T08:04:23.397Z,86.88
2017-01-12T08:05:03.964Z,86.69
2017-01-12T08:05:44.687Z,87.07
2017-01-12T08:06:25.367Z,87.26
2017-01-12T08:07:06.349Z,87.07
2017-01-12T08:07:47.081Z,87.64
2017-01-12T08:08:27.756Z,87.54
2017-01-12T08:09:08.496Z,86.88
2017-01-12T08:09:49.236Z,87.35
2017-01-12T08:10:29.818Z,87.54
2017-01-12T08:11:10.492Z,87.35
2017-01-12T08:11:51.122Z,87.54
2017-01-12T08:12:31.799Z,87.35
2017-01-12T08:13:12.432Z,87.35
2017-01-12T08:13:53.093Z,87.35
2017-01-12T08:14:33.755Z,87.54
2017-01-12T08:15:14.409Z,87.45
2017-01-12T08:15:55.044Z,87.54
2017-01-12T08:16:35.774Z,87.54
2017-01-12T08:17:16.363Z,87.07
2017-01-12T08:17:56.985Z,87.07
2017-01-12T08:18:37.550Z,87.54
2017-01-12T08:19:19.123Z,87.35
2017-01-12T08:19:59.770Z,87.35
2017-01-12T08:20:40.382Z,87.35
2017-01-12T08:21:20.984Z,87.07
2017-01-12T08:22:01.580Z,87.35
2017-01-12T08:22:42.177Z,87.92
2017-01-12T08:23:22.757Z,87.92
2017-01-12T08:24:03.375Z,87.83
2017-01-12T08:24:43.991Z,87.83
2017-01-12T08:25:24.576Z,87.92
2017-01-12T08:26:05.134Z,87.92
2017-01-12T08:26:45.826Z,87.92
2017-01-12T08:27:26.382Z,87.92
2017-01-12T08:28:07.029Z,87.92
2017-01-12T08:28:47.626Z,87.26
2017-01-12T08:29:28.337Z,87.07
2017-01-12T08:30:09.082Z,87.35
2017-01-12T08:30:49.797Z,87.64
2017-01-12T08:31:30.363Z,87.35
2017-01-12T08:32:11.097Z,87.45
2017-01-12T08:32:52.877Z,87.54
2017-01-12T08:33:33.514Z,87.35
2017-01-12T08:34:14.203Z,87.35
2017-01-12T08:34:54.951Z,87.35
2017-01-12T08:35:35.689Z,87.35
2017-01-12T08:36:16.289Z,87.35
2017-01-12T08:36:56.995Z,87.35
2017-01-12T08:37:37.562Z,87.54
2017-01-12T08:38:18.324Z,87.26
2017-01-12T08:38:58.997Z,87.54
2017-01-12T08:39:39.711Z,87.64
2017-01-12T08:40:20.281Z,87.07
2017-01-12T08:41:01.056Z,87.54
2017-01-12T08:41:41.728Z,87.54
2017-01-12T08:42:23.442Z,87.54
2017-01-12T08:43:04.004Z,87.54
2017-01-12T08:43:44.803Z,87.54
2017-01-12T08:44:25.449Z,87.45
2017-01-12T08:45:06.154Z,87.64
2017-01-12T08:45:46.701Z,87.45
2017-01-12T08:46:27.392Z,87.54
2017-01-12T08:47:08.060Z,87.35
2017-01-12T08:47:48.766Z,87.54
2017-01-12T08:48:29.316Z,87.54
2017-01-12T08:49:10.994Z,87.54